sensor_id;sensor_type;location;lat;lon;timestamp;P1;durP1;ratioP1;P2;durP2;ratioP2
72085;SDS011;64750;52.134;5.424;2023-05-07T00:02:16;4.97;;;4.68;;
72085;SDS011;64750;52.134;5.424;2023-05-07T00:04:42;5.57;;;5.13;;
72085;SDS011;64750;52.134;5.424;2023-05-07T00:07:10;4.75;;;4.43;;
72085;SDS011;64750;52.134;5.424;2023-05-07T00:09:36;4.80;;;4.50;;
72085;SDS011;64750;52.134;5.424;2023-05-07T00:12:03;5.37;;;4.97;;
72085;SDS011;64750;52.134;5.424;2023-05-07T00:14:29;5.30;;;4.90;;
72085;SDS011;64750;52.134;5.424;2023-05-07T00:16:56;5.25;;;4.75;;
72085;SDS011;64750;52.134;5.424;2023-05-07T00:19:22;5.82;;;4.80;;
72085;SDS011;64750;52.134;5.424;2023-05-07T00:21:49;5.10;;;4.70;;
72085;SDS011;64750;52.134;5.424;2023-05-07T00:24:15;5.63;;;4.80;;
72085;SDS011;64750;52.134;5.424;2023-05-07T00:26:41;7.18;;;4.38;;
72085;SDS011;64750;52.134;5.424;2023-05-07T00:29:08;5.43;;;5.03;;
72085;SDS011;64750;52.134;5.424;2023-05-07T00:31:34;5.78;;;5.22;;
72085;SDS011;64750;52.134;5.424;2023-05-07T00:34:01;5.85;;;4.65;;
72085;SDS011;64750;52.134;5.424;2023-05-07T00:36:28;5.93;;;4.93;;
72085;SDS011;64750;52.134;5.424;2023-05-07T00:38:56;5.07;;;4.68;;
72085;SDS011;64750;52.134;5.424;2023-05-07T00:41:26;7.32;;;4.78;;
72085;SDS011;64750;52.134;5.424;2023-05-07T00:43:52;8.63;;;5.05;;
72085;SDS011;64750;52.134;5.424;2023-05-07T00:46:21;6.05;;;5.55;;
72085;SDS011;64750;52.134;5.424;2023-05-07T00:48:49;4.90;;;4.60;;
72085;SDS011;64750;52.134;5.424;2023-05-07T00:51:17;5.82;;;5.13;;
72085;SDS011;64750;52.134;5.424;2023-05-07T00:53:44;5.47;;;4.72;;
72085;SDS011;64750;52.134;5.424;2023-05-07T00:56:11;5.53;;;5.00;;
72085;SDS011;64750;52.134;5.424;2023-05-07T00:58:38;5.78;;;5.05;;
72085;SDS011;64750;52.134;5.424;2023-05-07T01:01:05;6.17;;;5.20;;
72085;SDS011;64750;52.134;5.424;2023-05-07T01:03:32;5.43;;;5.03;;
72085;SDS011;64750;52.134;5.424;2023-05-07T01:05:59;6.20;;;5.60;;
72085;SDS011;64750;52.134;5.424;2023-05-07T01:08:27;5.30;;;4.75;;
72085;SDS011;64750;52.134;5.424;2023-05-07T01:10:56;4.78;;;4.47;;
72085;SDS011;64750;52.134;5.424;2023-05-07T01:13:23;8.93;;;5.03;;
72085;SDS011;64750;52.134;5.424;2023-05-07T01:15:50;5.57;;;5.00;;
72085;SDS011;64750;52.134;5.424;2023-05-07T01:18:17;5.95;;;5.15;;
72085;SDS011;64750;52.134;5.424;2023-05-07T01:20:43;5.25;;;4.95;;
72085;SDS011;64750;52.134;5.424;2023-05-07T01:23:11;6.55;;;5.22;;
72085;SDS011;64750;52.134;5.424;2023-05-07T01:25:38;5.73;;;5.20;;
72085;SDS011;64750;52.134;5.424;2023-05-07T01:28:04;5.03;;;4.72;;
72085;SDS011;64750;52.134;5.424;2023-05-07T01:30:31;6.15;;;5.50;;
72085;SDS011;64750;52.134;5.424;2023-05-07T01:33:01;5.00;;;4.70;;
72085;SDS011;64750;52.134;5.424;2023-05-07T01:35:34;5.63;;;5.22;;
72085;SDS011;64750;52.134;5.424;2023-05-07T01:38:04;5.57;;;5.07;;
72085;SDS011;64750;52.134;5.424;2023-05-07T01:40:32;5.68;;;5.28;;
72085;SDS011;64750;52.134;5.424;2023-05-07T01:43:03;5.40;;;5.10;;
72085;SDS011;64750;52.134;5.424;2023-05-07T01:45:31;5.25;;;4.85;;
72085;SDS011;64750;52.134;5.424;2023-05-07T01:48:01;5.35;;;5.05;;
72085;SDS011;64750;52.134;5.424;2023-05-07T01:50:29;6.10;;;5.50;;
72085;SDS011;64750;52.134;5.424;2023-05-07T01:52:57;5.57;;;5.18;;
72085;SDS011;64750;52.134;5.424;2023-05-07T01:55:24;5.57;;;5.13;;
72085;SDS011;64750;52.134;5.424;2023-05-07T01:57:50;5.90;;;5.40;;
72085;SDS011;64750;52.134;5.424;2023-05-07T02:00:17;5.75;;;5.25;;
72085;SDS011;64750;52.134;5.424;2023-05-07T02:02:45;5.50;;;5.10;;
72085;SDS011;64750;52.134;5.424;2023-05-07T02:05:11;5.90;;;5.47;;
72085;SDS011;64750;52.134;5.424;2023-05-07T02:07:38;5.65;;;5.25;;
72085;SDS011;64750;52.134;5.424;2023-05-07T02:10:04;6.07;;;5.45;;
72085;SDS011;64750;52.134;5.424;2023-05-07T02:12:32;5.63;;;5.03;;
72085;SDS011;64750;52.134;5.424;2023-05-07T02:14:59;7.27;;;5.67;;
72085;SDS011;64750;52.134;5.424;2023-05-07T02:17:26;6.38;;;5.85;;
72085;SDS011;64750;52.134;5.424;2023-05-07T02:19:52;5.95;;;5.55;;
72085;SDS011;64750;52.134;5.424;2023-05-07T02:22:19;6.07;;;5.68;;
72085;SDS011;64750;52.134;5.424;2023-05-07T02:24:45;6.40;;;5.80;;
72085;SDS011;64750;52.134;5.424;2023-05-07T02:27:12;5.30;;;5.00;;
72085;SDS011;64750;52.134;5.424;2023-05-07T02:29:38;6.10;;;5.60;;
72085;SDS011;64750;52.134;5.424;2023-05-07T02:32:05;6.07;;;5.72;;
72085;SDS011;64750;52.134;5.424;2023-05-07T02:34:31;5.70;;;5.40;;
72085;SDS011;64750;52.134;5.424;2023-05-07T02:36:58;6.35;;;5.95;;
72085;SDS011;64750;52.134;5.424;2023-05-07T02:39:24;6.03;;;5.53;;
72085;SDS011;64750;52.134;5.424;2023-05-07T02:41:50;6.85;;;5.88;;
72085;SDS011;64750;52.134;5.424;2023-05-07T02:44:17;5.97;;;5.47;;
72085;SDS011;64750;52.134;5.424;2023-05-07T02:46:43;6.20;;;5.80;;
72085;SDS011;64750;52.134;5.424;2023-05-07T02:49:09;6.65;;;6.15;;
72085;SDS011;64750;52.134;5.424;2023-05-07T02:51:36;6.37;;;5.90;;
72085;SDS011;64750;52.134;5.424;2023-05-07T02:54:02;6.70;;;6.25;;
72085;SDS011;64750;52.134;5.424;2023-05-07T02:56:29;6.97;;;6.57;;
72085;SDS011;64750;52.134;5.424;2023-05-07T02:58:56;7.60;;;6.88;;
72085;SDS011;64750;52.134;5.424;2023-05-07T03:01:22;6.65;;;6.15;;
72085;SDS011;64750;52.134;5.424;2023-05-07T03:03:49;6.47;;;6.07;;
72085;SDS011;64750;52.134;5.424;2023-05-07T03:06:15;6.97;;;6.38;;
72085;SDS011;64750;52.134;5.424;2023-05-07T03:08:42;7.28;;;6.63;;
72085;SDS011;64750;52.134;5.424;2023-05-07T03:11:08;6.78;;;6.20;;
72085;SDS011;64750;52.134;5.424;2023-05-07T03:13:35;6.93;;;6.53;;
72085;SDS011;64750;52.134;5.424;2023-05-07T03:16:01;7.30;;;6.80;;
72085;SDS011;64750;52.134;5.424;2023-05-07T03:18:28;7.10;;;6.47;;
72085;SDS011;64750;52.134;5.424;2023-05-07T03:20:54;7.15;;;6.65;;
72085;SDS011;64750;52.134;5.424;2023-05-07T03:23:21;7.65;;;6.78;;
72085;SDS011;64750;52.134;5.424;2023-05-07T03:25:50;7.75;;;7.15;;
72085;SDS011;64750;52.134;5.424;2023-05-07T03:28:16;7.83;;;7.30;;
72085;SDS011;64750;52.134;5.424;2023-05-07T03:30:43;6.85;;;6.35;;
72085;SDS011;64750;52.134;5.424;2023-05-07T03:33:09;7.18;;;6.57;;
72085;SDS011;64750;52.134;5.424;2023-05-07T03:35:35;7.13;;;6.63;;
72085;SDS011;64750;52.134;5.424;2023-05-07T03:38:02;7.60;;;6.65;;
72085;SDS011;64750;52.134;5.424;2023-05-07T03:40:28;7.30;;;6.70;;
72085;SDS011;64750;52.134;5.424;2023-05-07T03:42:55;6.40;;;6.00;;
72085;SDS011;64750;52.134;5.424;2023-05-07T03:45:22;7.10;;;6.60;;
72085;SDS011;64750;52.134;5.424;2023-05-07T03:47:48;7.35;;;6.70;;
72085;SDS011;64750;52.134;5.424;2023-05-07T03:50:14;7.30;;;6.70;;
72085;SDS011;64750;52.134;5.424;2023-05-07T03:52:41;7.37;;;6.77;;
72085;SDS011;64750;52.134;5.424;2023-05-07T03:55:07;7.57;;;7.03;;
72085;SDS011;64750;52.134;5.424;2023-05-07T03:57:34;7.80;;;7.00;;
72085;SDS011;64750;52.134;5.424;2023-05-07T04:00:01;7.22;;;6.65;;
72085;SDS011;64750;52.134;5.424;2023-05-07T04:02:28;7.18;;;6.68;;
72085;SDS011;64750;52.134;5.424;2023-05-07T04:04:54;7.13;;;6.63;;
72085;SDS011;64750;52.134;5.424;2023-05-07T04:07:21;7.47;;;6.75;;
72085;SDS011;64750;52.134;5.424;2023-05-07T04:09:47;7.78;;;7.18;;
72085;SDS011;64750;52.134;5.424;2023-05-07T04:12:14;7.40;;;6.80;;
72085;SDS011;64750;52.134;5.424;2023-05-07T04:14:41;7.53;;;6.82;;
72085;SDS011;64750;52.134;5.424;2023-05-07T04:17:07;8.03;;;7.53;;
72085;SDS011;64750;52.134;5.424;2023-05-07T04:19:35;7.68;;;7.10;;
72085;SDS011;64750;52.134;5.424;2023-05-07T04:22:02;8.00;;;7.25;;
72085;SDS011;64750;52.134;5.424;2023-05-07T04:24:30;8.18;;;7.45;;
72085;SDS011;64750;52.134;5.424;2023-05-07T04:26:59;8.15;;;7.57;;
72085;SDS011;64750;52.134;5.424;2023-05-07T04:29:25;9.70;;;8.10;;
72085;SDS011;64750;52.134;5.424;2023-05-07T04:31:52;8.57;;;7.80;;
72085;SDS011;64750;52.134;5.424;2023-05-07T04:34:18;10.48;;;7.38;;
72085;SDS011;64750;52.134;5.424;2023-05-07T04:36:45;8.13;;;7.53;;
72085;SDS011;64750;52.134;5.424;2023-05-07T04:39:12;7.72;;;7.13;;
72085;SDS011;64750;52.134;5.424;2023-05-07T04:41:38;9.13;;;8.23;;
72085;SDS011;64750;52.134;5.424;2023-05-07T04:44:05;8.73;;;8.02;;
72085;SDS011;64750;52.134;5.424;2023-05-07T04:46:31;9.35;;;8.57;;
72085;SDS011;64750;52.134;5.424;2023-05-07T04:48:58;9.40;;;8.60;;
72085;SDS011;64750;52.134;5.424;2023-05-07T04:51:24;8.30;;;7.68;;
72085;SDS011;64750;52.134;5.424;2023-05-07T04:53:51;9.27;;;8.47;;
72085;SDS011;64750;52.134;5.424;2023-05-07T04:56:17;9.30;;;8.50;;
72085;SDS011;64750;52.134;5.424;2023-05-07T04:58:44;8.80;;;8.10;;
72085;SDS011;64750;52.134;5.424;2023-05-07T05:01:10;8.80;;;8.00;;
72085;SDS011;64750;52.134;5.424;2023-05-07T05:03:37;9.38;;;8.68;;
72085;SDS011;64750;52.134;5.424;2023-05-07T05:06:05;8.93;;;8.23;;
72085;SDS011;64750;52.134;5.424;2023-05-07T05:08:32;10.23;;;9.27;;
72085;SDS011;64750;52.134;5.424;2023-05-07T05:10:58;8.45;;;7.85;;
72085;SDS011;64750;52.134;5.424;2023-05-07T05:13:27;9.48;;;8.57;;
72085;SDS011;64750;52.134;5.424;2023-05-07T05:15:53;8.98;;;8.25;;
72085;SDS011;64750;52.134;5.424;2023-05-07T05:18:19;9.30;;;8.63;;
72085;SDS011;64750;52.134;5.424;2023-05-07T05:20:46;9.68;;;8.77;;
72085;SDS011;64750;52.134;5.424;2023-05-07T05:23:12;9.10;;;8.30;;
72085;SDS011;64750;52.134;5.424;2023-05-07T05:25:39;9.38;;;8.38;;
72085;SDS011;64750;52.134;5.424;2023-05-07T05:28:06;10.25;;;9.05;;
72085;SDS011;64750;52.134;5.424;2023-05-07T05:30:32;10.27;;;9.33;;
72085;SDS011;64750;52.134;5.424;2023-05-07T05:32:59;10.13;;;8.65;;
72085;SDS011;64750;52.134;5.424;2023-05-07T05:35:26;9.60;;;8.73;;
72085;SDS011;64750;52.134;5.424;2023-05-07T05:37:52;10.60;;;9.45;;
72085;SDS011;64750;52.134;5.424;2023-05-07T05:40:18;9.20;;;8.30;;
72085;SDS011;64750;52.134;5.424;2023-05-07T05:42:45;9.73;;;8.80;;
72085;SDS011;64750;52.134;5.424;2023-05-07T05:45:12;10.27;;;9.30;;
72085;SDS011;64750;52.134;5.424;2023-05-07T05:47:39;10.30;;;9.27;;
72085;SDS011;64750;52.134;5.424;2023-05-07T05:50:06;10.95;;;9.95;;
72085;SDS011;64750;52.134;5.424;2023-05-07T05:52:33;10.25;;;9.38;;
72085;SDS011;64750;52.134;5.424;2023-05-07T05:55:00;10.50;;;9.60;;
72085;SDS011;64750;52.134;5.424;2023-05-07T05:57:26;10.05;;;9.15;;
72085;SDS011;64750;52.134;5.424;2023-05-07T05:59:54;10.65;;;9.65;;
72085;SDS011;64750;52.134;5.424;2023-05-07T06:02:21;12.50;;;9.65;;
72085;SDS011;64750;52.134;5.424;2023-05-07T06:04:47;11.02;;;9.88;;
72085;SDS011;64750;52.134;5.424;2023-05-07T06:07:14;11.33;;;9.83;;
72085;SDS011;64750;52.134;5.424;2023-05-07T06:09:40;10.70;;;9.73;;
72085;SDS011;64750;52.134;5.424;2023-05-07T06:12:07;10.25;;;9.45;;
72085;SDS011;64750;52.134;5.424;2023-05-07T06:14:33;11.13;;;10.23;;
72085;SDS011;64750;52.134;5.424;2023-05-07T06:16:59;9.30;;;8.70;;
72085;SDS011;64750;52.134;5.424;2023-05-07T06:19:26;11.27;;;10.37;;
72085;SDS011;64750;52.134;5.424;2023-05-07T06:21:54;11.20;;;10.30;;
72085;SDS011;64750;52.134;5.424;2023-05-07T06:24:22;12.07;;;11.05;;
72085;SDS011;64750;52.134;5.424;2023-05-07T06:26:48;11.95;;;10.85;;
72085;SDS011;64750;52.134;5.424;2023-05-07T06:29:15;11.23;;;10.32;;
72085;SDS011;64750;52.134;5.424;2023-05-07T06:31:41;11.10;;;10.10;;
72085;SDS011;64750;52.134;5.424;2023-05-07T06:34:08;10.48;;;9.38;;
72085;SDS011;64750;52.134;5.424;2023-05-07T06:36:34;12.65;;;10.52;;
72085;SDS011;64750;52.134;5.424;2023-05-07T06:39:01;11.48;;;10.50;;
72085;SDS011;64750;52.134;5.424;2023-05-07T06:41:27;11.93;;;10.75;;
72085;SDS011;64750;52.134;5.424;2023-05-07T06:43:54;11.43;;;10.43;;
72085;SDS011;64750;52.134;5.424;2023-05-07T06:46:20;11.90;;;10.75;;
72085;SDS011;64750;52.134;5.424;2023-05-07T06:48:47;12.57;;;11.30;;
72085;SDS011;64750;52.134;5.424;2023-05-07T06:51:13;13.75;;;12.40;;
72085;SDS011;64750;52.134;5.424;2023-05-07T06:53:40;10.88;;;9.98;;
72085;SDS011;64750;52.134;5.424;2023-05-07T06:56:06;12.50;;;11.20;;
72085;SDS011;64750;52.134;5.424;2023-05-07T06:58:33;12.32;;;11.10;;
72085;SDS011;64750;52.134;5.424;2023-05-07T07:00:59;12.20;;;10.93;;
72085;SDS011;64750;52.134;5.424;2023-05-07T07:03:26;11.95;;;10.75;;
72085;SDS011;64750;52.134;5.424;2023-05-07T07:05:52;12.30;;;11.00;;
72085;SDS011;64750;52.134;5.424;2023-05-07T07:08:19;12.60;;;10.80;;
72085;SDS011;64750;52.134;5.424;2023-05-07T07:10:47;12.52;;;11.43;;
72085;SDS011;64750;52.134;5.424;2023-05-07T07:13:14;12.48;;;11.20;;
72085;SDS011;64750;52.134;5.424;2023-05-07T07:15:40;11.80;;;10.57;;
72085;SDS011;64750;52.134;5.424;2023-05-07T07:18:07;11.77;;;10.68;;
72085;SDS011;64750;52.134;5.424;2023-05-07T07:20:33;12.23;;;11.17;;
72085;SDS011;64750;52.134;5.424;2023-05-07T07:23:00;11.50;;;10.70;;
72085;SDS011;64750;52.134;5.424;2023-05-07T07:25:26;11.63;;;10.63;;
72085;SDS011;64750;52.134;5.424;2023-05-07T07:27:52;12.02;;;10.95;;
72085;SDS011;64750;52.134;5.424;2023-05-07T07:30:19;11.82;;;10.93;;
72085;SDS011;64750;52.134;5.424;2023-05-07T07:32:45;11.20;;;10.20;;
72085;SDS011;64750;52.134;5.424;2023-05-07T07:35:12;11.13;;;10.23;;
72085;SDS011;64750;52.134;5.424;2023-05-07T07:37:38;12.25;;;11.15;;
72085;SDS011;64750;52.134;5.424;2023-05-07T07:40:05;12.13;;;11.07;;
72085;SDS011;64750;52.134;5.424;2023-05-07T07:42:32;11.65;;;10.52;;
72085;SDS011;64750;52.134;5.424;2023-05-07T07:44:58;12.77;;;11.67;;
72085;SDS011;64750;52.134;5.424;2023-05-07T07:47:25;12.82;;;11.73;;
72085;SDS011;64750;52.134;5.424;2023-05-07T07:49:51;14.10;;;12.65;;
72085;SDS011;64750;52.134;5.424;2023-05-07T07:52:18;13.45;;;12.27;;
72085;SDS011;64750;52.134;5.424;2023-05-07T07:54:44;12.75;;;11.45;;
72085;SDS011;64750;52.134;5.424;2023-05-07T07:57:11;14.27;;;12.70;;
72085;SDS011;64750;52.134;5.424;2023-05-07T07:59:37;12.80;;;11.65;;
72085;SDS011;64750;52.134;5.424;2023-05-07T08:02:03;12.05;;;10.95;;
72085;SDS011;64750;52.134;5.424;2023-05-07T08:04:30;12.95;;;11.63;;
72085;SDS011;64750;52.134;5.424;2023-05-07T08:06:59;12.68;;;10.27;;
72085;SDS011;64750;52.134;5.424;2023-05-07T08:09:25;13.73;;;12.37;;
72085;SDS011;64750;52.134;5.424;2023-05-07T08:11:52;14.27;;;12.95;;
72085;SDS011;64750;52.134;5.424;2023-05-07T08:14:18;13.27;;;12.07;;
72085;SDS011;64750;52.134;5.424;2023-05-07T08:16:45;11.65;;;10.70;;
72085;SDS011;64750;52.134;5.424;2023-05-07T08:19:11;12.90;;;11.63;;
72085;SDS011;64750;52.134;5.424;2023-05-07T08:21:38;12.07;;;11.07;;
72085;SDS011;64750;52.134;5.424;2023-05-07T08:24:05;13.35;;;12.05;;
72085;SDS011;64750;52.134;5.424;2023-05-07T08:26:32;13.70;;;12.70;;
72085;SDS011;64750;52.134;5.424;2023-05-07T08:28:59;13.02;;;11.73;;
72085;SDS011;64750;52.134;5.424;2023-05-07T08:31:25;14.07;;;12.82;;
72085;SDS011;64750;52.134;5.424;2023-05-07T08:33:51;14.53;;;13.13;;
72085;SDS011;64750;52.134;5.424;2023-05-07T08:36:18;13.70;;;12.50;;
72085;SDS011;64750;52.134;5.424;2023-05-07T08:38:45;13.63;;;12.50;;
72085;SDS011;64750;52.134;5.424;2023-05-07T08:41:11;13.45;;;12.25;;
72085;SDS011;64750;52.134;5.424;2023-05-07T08:43:38;14.25;;;12.95;;
72085;SDS011;64750;52.134;5.424;2023-05-07T08:46:08;14.57;;;13.17;;
72085;SDS011;64750;52.134;5.424;2023-05-07T08:48:36;13.88;;;12.73;;
72085;SDS011;64750;52.134;5.424;2023-05-07T08:51:02;14.68;;;13.40;;
72085;SDS011;64750;52.134;5.424;2023-05-07T08:53:29;14.85;;;13.43;;
72085;SDS011;64750;52.134;5.424;2023-05-07T08:55:55;15.95;;;14.27;;
72085;SDS011;64750;52.134;5.424;2023-05-07T08:58:22;13.73;;;12.43;;
72085;SDS011;64750;52.134;5.424;2023-05-07T09:00:48;14.38;;;13.00;;
72085;SDS011;64750;52.134;5.424;2023-05-07T09:03:16;14.85;;;12.60;;
72085;SDS011;64750;52.134;5.424;2023-05-07T09:05:43;14.63;;;13.13;;
72085;SDS011;64750;52.134;5.424;2023-05-07T09:08:10;14.70;;;13.30;;
72085;SDS011;64750;52.134;5.424;2023-05-07T09:10:42;13.93;;;12.83;;
72085;SDS011;64750;52.134;5.424;2023-05-07T09:13:08;14.65;;;13.15;;
72085;SDS011;64750;52.134;5.424;2023-05-07T09:15:36;14.70;;;13.23;;
72085;SDS011;64750;52.134;5.424;2023-05-07T09:18:03;15.98;;;14.63;;
72085;SDS011;64750;52.134;5.424;2023-05-07T09:20:30;15.23;;;13.80;;
72085;SDS011;64750;52.134;5.424;2023-05-07T09:22:56;19.23;;;14.77;;
72085;SDS011;64750;52.134;5.424;2023-05-07T09:25:30;15.82;;;14.40;;
72085;SDS011;64750;52.134;5.424;2023-05-07T09:27:57;17.63;;;14.85;;
72085;SDS011;64750;52.134;5.424;2023-05-07T09:30:31;14.95;;;13.52;;
72085;SDS011;64750;52.134;5.424;2023-05-07T09:32:58;15.77;;;14.27;;
72085;SDS011;64750;52.134;5.424;2023-05-07T09:35:26;14.53;;;13.10;;
72085;SDS011;64750;52.134;5.424;2023-05-07T09:37:53;14.85;;;13.55;;
72085;SDS011;64750;52.134;5.424;2023-05-07T09:40:22;15.00;;;13.43;;
72085;SDS011;64750;52.134;5.424;2023-05-07T09:42:50;13.65;;;12.48;;
72085;SDS011;64750;52.134;5.424;2023-05-07T09:45:39;16.45;;;11.82;;
72085;SDS011;64750;52.134;5.424;2023-05-07T09:48:05;13.30;;;12.00;;
72085;SDS011;64750;52.134;5.424;2023-05-07T09:50:34;14.80;;;13.40;;
72085;SDS011;64750;52.134;5.424;2023-05-07T09:53:03;13.02;;;11.95;;
72085;SDS011;64750;52.134;5.424;2023-05-07T09:55:30;12.90;;;11.82;;
72085;SDS011;64750;52.134;5.424;2023-05-07T09:57:56;11.57;;;10.60;;
72085;SDS011;64750;52.134;5.424;2023-05-07T10:00:24;14.00;;;12.67;;
72085;SDS011;64750;52.134;5.424;2023-05-07T10:02:52;15.20;;;13.75;;
72085;SDS011;64750;52.134;5.424;2023-05-07T10:05:19;15.50;;;13.93;;
72085;SDS011;64750;52.134;5.424;2023-05-07T10:07:49;14.20;;;12.80;;
72085;SDS011;64750;52.134;5.424;2023-05-07T10:10:17;15.00;;;13.15;;
72085;SDS011;64750;52.134;5.424;2023-05-07T10:12:43;13.70;;;12.60;;
72085;SDS011;64750;52.134;5.424;2023-05-07T10:15:11;15.50;;;13.90;;
72085;SDS011;64750;52.134;5.424;2023-05-07T10:17:39;14.45;;;13.20;;
72085;SDS011;64750;52.134;5.424;2023-05-07T10:20:06;15.13;;;13.35;;
72085;SDS011;64750;52.134;5.424;2023-05-07T10:22:43;15.10;;;13.63;;
72085;SDS011;64750;52.134;5.424;2023-05-07T10:25:23;15.33;;;13.43;;
72085;SDS011;64750;52.134;5.424;2023-05-07T10:27:54;15.10;;;13.60;;
72085;SDS011;64750;52.134;5.424;2023-05-07T10:33:07;15.93;;;13.68;;
72085;SDS011;64750;52.134;5.424;2023-05-07T10:35:40;14.13;;;12.73;;
72085;SDS011;64750;52.134;5.424;2023-05-07T10:38:08;14.47;;;13.17;;
72085;SDS011;64750;52.134;5.424;2023-05-07T10:40:35;14.68;;;13.18;;
72085;SDS011;64750;52.134;5.424;2023-05-07T10:43:03;13.63;;;12.32;;
72085;SDS011;64750;52.134;5.424;2023-05-07T10:45:35;15.35;;;13.02;;
72085;SDS011;64750;52.134;5.424;2023-05-07T10:48:14;14.30;;;12.82;;
72085;SDS011;64750;52.134;5.424;2023-05-07T10:53:44;13.45;;;11.85;;
72085;SDS011;64750;52.134;5.424;2023-05-07T10:58:43;14.02;;;12.52;;
72085;SDS011;64750;52.134;5.424;2023-05-07T11:01:10;13.13;;;11.82;;
72085;SDS011;64750;52.134;5.424;2023-05-07T11:04:12;13.03;;;11.80;;
72085;SDS011;64750;52.134;5.424;2023-05-07T11:06:41;14.32;;;12.98;;
72085;SDS011;64750;52.134;5.424;2023-05-07T11:09:07;14.45;;;13.10;;
72085;SDS011;64750;52.134;5.424;2023-05-07T11:11:46;14.60;;;13.10;;
72085;SDS011;64750;52.134;5.424;2023-05-07T11:14:14;14.23;;;12.82;;
72085;SDS011;64750;52.134;5.424;2023-05-07T11:17:02;16.37;;;13.93;;
72085;SDS011;64750;52.134;5.424;2023-05-07T11:22:36;14.60;;;13.23;;
72085;SDS011;64750;52.134;5.424;2023-05-07T11:25:05;15.20;;;13.68;;
72085;SDS011;64750;52.134;5.424;2023-05-07T11:27:32;15.75;;;14.35;;
72085;SDS011;64750;52.134;5.424;2023-05-07T11:29:59;16.07;;;14.47;;
72085;SDS011;64750;52.134;5.424;2023-05-07T11:32:29;16.15;;;14.65;;
72085;SDS011;64750;52.134;5.424;2023-05-07T11:34:58;15.00;;;13.40;;
72085;SDS011;64750;52.134;5.424;2023-05-07T11:37:27;17.02;;;15.20;;
72085;SDS011;64750;52.134;5.424;2023-05-07T11:40:02;16.95;;;14.30;;
72085;SDS011;64750;52.134;5.424;2023-05-07T11:45:01;19.13;;;14.85;;
72085;SDS011;64750;52.134;5.424;2023-05-07T11:47:29;16.83;;;15.13;;
72085;SDS011;64750;52.134;5.424;2023-05-07T11:49:56;17.20;;;15.38;;
72085;SDS011;64750;52.134;5.424;2023-05-07T11:52:29;19.67;;;15.50;;
72085;SDS011;64750;52.134;5.424;2023-05-07T11:54:56;18.63;;;16.53;;
72085;SDS011;64750;52.134;5.424;2023-05-07T11:57:24;17.23;;;15.57;;
72085;SDS011;64750;52.134;5.424;2023-05-07T11:59:57;16.38;;;14.73;;
72085;SDS011;64750;52.134;5.424;2023-05-07T12:02:25;17.83;;;15.50;;
72085;SDS011;64750;52.134;5.424;2023-05-07T12:04:52;16.42;;;14.82;;
72085;SDS011;64750;52.134;5.424;2023-05-07T12:07:19;17.37;;;15.67;;
72085;SDS011;64750;52.134;5.424;2023-05-07T12:09:47;17.55;;;15.57;;
72085;SDS011;64750;52.134;5.424;2023-05-07T12:12:14;15.88;;;14.30;;
72085;SDS011;64750;52.134;5.424;2023-05-07T12:14:45;16.58;;;14.93;;
72085;SDS011;64750;52.134;5.424;2023-05-07T12:17:12;17.95;;;15.60;;
72085;SDS011;64750;52.134;5.424;2023-05-07T12:19:41;19.83;;;16.10;;
72085;SDS011;64750;52.134;5.424;2023-05-07T12:22:09;15.90;;;14.40;;
72085;SDS011;64750;52.134;5.424;2023-05-07T12:24:46;14.35;;;13.02;;
72085;SDS011;64750;52.134;5.424;2023-05-07T12:27:22;16.38;;;14.23;;
72085;SDS011;64750;52.134;5.424;2023-05-07T12:29:50;16.95;;;15.25;;
72085;SDS011;64750;52.134;5.424;2023-05-07T12:32:18;17.43;;;15.63;;
72085;SDS011;64750;52.134;5.424;2023-05-07T12:34:45;16.35;;;14.75;;
72085;SDS011;64750;52.134;5.424;2023-05-07T12:37:13;15.90;;;14.45;;
72085;SDS011;64750;52.134;5.424;2023-05-07T12:39:49;15.20;;;13.65;;
72085;SDS011;64750;52.134;5.424;2023-05-07T12:42:16;14.57;;;13.27;;
72085;SDS011;64750;52.134;5.424;2023-05-07T12:44:45;16.63;;;13.47;;
72085;SDS011;64750;52.134;5.424;2023-05-07T12:47:12;13.57;;;12.27;;
72085;SDS011;64750;52.134;5.424;2023-05-07T12:49:41;12.38;;;11.25;;
72085;SDS011;64750;52.134;5.424;2023-05-07T12:52:08;14.43;;;12.40;;
72085;SDS011;64750;52.134;5.424;2023-05-07T12:54:37;13.50;;;11.70;;
72085;SDS011;64750;52.134;5.424;2023-05-07T12:57:05;10.60;;;9.67;;
72085;SDS011;64750;52.134;5.424;2023-05-07T12:59:40;10.10;;;9.20;;
72085;SDS011;64750;52.134;5.424;2023-05-07T13:02:08;7.85;;;7.10;;
72085;SDS011;64750;52.134;5.424;2023-05-07T13:04:35;9.20;;;8.40;;
72085;SDS011;64750;52.134;5.424;2023-05-07T13:07:02;8.57;;;7.88;;
72085;SDS011;64750;52.134;5.424;2023-05-07T13:09:30;8.37;;;7.57;;
72085;SDS011;64750;52.134;5.424;2023-05-07T13:11:57;8.93;;;8.13;;
72085;SDS011;64750;52.134;5.424;2023-05-07T13:14:27;8.02;;;7.32;;
72085;SDS011;64750;52.134;5.424;2023-05-07T13:16:53;9.20;;;8.35;;
72085;SDS011;64750;52.134;5.424;2023-05-07T13:19:20;10.70;;;9.77;;
72085;SDS011;64750;52.134;5.424;2023-05-07T13:21:46;11.10;;;10.00;;
72085;SDS011;64750;52.134;5.424;2023-05-07T13:24:13;11.02;;;10.00;;
72085;SDS011;64750;52.134;5.424;2023-05-07T13:26:39;11.85;;;10.65;;
72085;SDS011;64750;52.134;5.424;2023-05-07T13:29:05;9.13;;;8.43;;
72085;SDS011;64750;52.134;5.424;2023-05-07T13:31:32;12.75;;;10.73;;
72085;SDS011;64750;52.134;5.424;2023-05-07T13:33:59;13.30;;;11.67;;
72085;SDS011;64750;52.134;5.424;2023-05-07T13:36:26;12.45;;;11.20;;
72085;SDS011;64750;52.134;5.424;2023-05-07T13:38:52;12.00;;;9.80;;
72085;SDS011;64750;52.134;5.424;2023-05-07T13:41:19;11.02;;;10.02;;
72085;SDS011;64750;52.134;5.424;2023-05-07T13:43:46;11.77;;;10.55;;
72085;SDS011;64750;52.134;5.424;2023-05-07T13:46:12;11.57;;;10.43;;
72085;SDS011;64750;52.134;5.424;2023-05-07T13:48:39;11.18;;;10.25;;
72085;SDS011;64750;52.134;5.424;2023-05-07T13:51:06;10.57;;;9.68;;
72085;SDS011;64750;52.134;5.424;2023-05-07T13:53:32;11.20;;;10.07;;
72085;SDS011;64750;52.134;5.424;2023-05-07T13:55:59;13.88;;;11.15;;
72085;SDS011;64750;52.134;5.424;2023-05-07T13:58:25;13.37;;;11.43;;
72085;SDS011;64750;52.134;5.424;2023-05-07T14:00:52;12.35;;;11.25;;
72085;SDS011;64750;52.134;5.424;2023-05-07T14:03:18;13.15;;;11.43;;
72085;SDS011;64750;52.134;5.424;2023-05-07T14:05:46;11.43;;;10.35;;
72085;SDS011;64750;52.134;5.424;2023-05-07T14:08:15;11.30;;;10.15;;
72085;SDS011;64750;52.134;5.424;2023-05-07T14:10:43;11.10;;;10.20;;
72085;SDS011;64750;52.134;5.424;2023-05-07T14:13:10;12.02;;;10.90;;
72085;SDS011;64750;52.134;5.424;2023-05-07T14:15:36;11.30;;;10.18;;
72085;SDS011;64750;52.134;5.424;2023-05-07T14:18:03;10.27;;;9.30;;
72085;SDS011;64750;52.134;5.424;2023-05-07T14:20:30;11.55;;;10.57;;
72085;SDS011;64750;52.134;5.424;2023-05-07T14:22:57;11.27;;;10.17;;
72085;SDS011;64750;52.134;5.424;2023-05-07T14:25:23;11.02;;;10.02;;
72085;SDS011;64750;52.134;5.424;2023-05-07T14:27:49;11.85;;;10.27;;
72085;SDS011;64750;52.134;5.424;2023-05-07T14:30:16;11.50;;;10.23;;
72085;SDS011;64750;52.134;5.424;2023-05-07T14:32:43;11.25;;;10.25;;
72085;SDS011;64750;52.134;5.424;2023-05-07T14:35:09;11.60;;;10.53;;
72085;SDS011;64750;52.134;5.424;2023-05-07T14:37:36;11.82;;;10.52;;
72085;SDS011;64750;52.134;5.424;2023-05-07T14:40:03;12.10;;;11.00;;
72085;SDS011;64750;52.134;5.424;2023-05-07T14:42:29;11.18;;;10.07;;
72085;SDS011;64750;52.134;5.424;2023-05-07T14:44:56;10.77;;;9.75;;
72085;SDS011;64750;52.134;5.424;2023-05-07T14:47:22;10.17;;;9.13;;
72085;SDS011;64750;52.134;5.424;2023-05-07T14:49:49;9.80;;;8.80;;